createdAt,value
2018-01-15T00:00:10.851Z,-0.90
2018-01-15T00:02:38.375Z,-1.00
2018-01-15T00:05:06.656Z,-1.10
2018-01-15T00:07:34.197Z,-1.20
2018-01-15T00:10:02.487Z,-1.10
2018-01-15T00:12:30.775Z,-1.40
2018-01-15T00:14:58.346Z,-1.40
2018-01-15T00:17:26.140Z,-1.40
2018-01-15T00:19:53.663Z,-1.50
2018-01-15T00:22:21.207Z,-1.50
2018-01-15T00:24:49.017Z,-1.40
2018-01-15T00:27:16.530Z,-1.50
2018-01-15T00:29:44.071Z,-1.50
2018-01-15T00:32:12.351Z,-1.70
2018-01-15T00:34:40.648Z,-1.60
2018-01-15T00:37:08.201Z,-1.60
2018-01-15T00:39:35.754Z,-1.60
2018-01-15T00:42:04.056Z,-1.60
2018-01-15T00:44:31.592Z,-1.60
2018-01-15T00:46:59.892Z,-1.50
2018-01-15T00:49:27.433Z,-1.60
2018-01-15T00:51:54.975Z,-1.60
2018-01-15T00:54:23.277Z,-1.70
2018-01-15T00:56:50.813Z,-1.70
2018-01-15T00:59:19.124Z,-1.70
2018-01-15T01:01:46.650Z,-1.70
2018-01-15T01:04:14.962Z,-1.60
2018-01-15T01:06:42.518Z,-1.60
2018-01-15T01:09:10.035Z,-1.60
2018-01-15T01:11:38.338Z,-1.60
2018-01-15T01:14:05.896Z,-1.70
2018-01-15T01:16:33.419Z,-1.60
2018-01-15T01:19:00.970Z,-1.60
2018-01-15T01:21:28.507Z,-1.60
2018-01-15T01:23:56.042Z,-1.50
2018-01-15T01:26:23.558Z,-1.40
2018-01-15T01:28:51.105Z,-1.30
2018-01-15T01:31:18.726Z,-1.30
2018-01-15T01:33:46.261Z,-1.20
2018-01-15T01:36:14.489Z,-1.20
2018-01-15T01:38:42.035Z,-1.20
2018-01-15T01:41:09.551Z,-1.10
2018-01-15T01:43:37.101Z,-1.20
2018-01-15T01:46:05.384Z,-1.20
2018-01-15T01:48:32.922Z,-1.20
2018-01-15T01:51:00.476Z,-1.10
2018-01-15T01:53:28.018Z,-1.10
2018-01-15T01:55:55.556Z,-1.10
2018-01-15T01:58:23.100Z,-1.10
2018-01-15T02:00:50.632Z,-1.10
2018-01-15T02:03:18.914Z,-1.30
2018-01-15T02:05:46.686Z,-1.30
2018-01-15T02:08:14.221Z,-1.40
2018-01-15T02:10:42.520Z,-1.50
2018-01-15T02:13:10.635Z,-1.50
2018-01-15T02:15:38.273Z,-1.60
2018-01-15T02:18:05.805Z,-1.60
2018-01-15T02:20:33.361Z,-1.70
2018-01-15T02:23:00.896Z,-1.70
2018-01-15T02:25:29.183Z,-1.80
2018-01-15T02:27:57.487Z,-1.80
2018-01-15T02:30:25.008Z,-1.80
2018-01-15T02:32:53.321Z,-1.80
2018-01-15T02:35:20.859Z,-1.90
2018-01-15T02:37:49.143Z,-1.80
2018-01-15T02:40:17.441Z,-1.80
2018-01-15T02:42:45.020Z,-1.80
2018-01-15T02:45:12.553Z,-1.90
2018-01-15T02:47:40.086Z,-2.00
2018-01-15T02:50:08.523Z,-2.20
2018-01-15T02:52:36.041Z,-2.20
2018-01-15T02:55:03.560Z,-2.10
2018-01-15T02:57:31.119Z,-1.90
2018-01-15T02:59:58.639Z,-1.70
2018-01-15T03:02:26.420Z,-1.50
2018-01-15T03:04:53.960Z,-1.40
2018-01-15T03:07:21.501Z,-1.40
2018-01-15T03:09:49.036Z,-1.40
2018-01-15T03:12:17.357Z,-1.40
2018-01-15T03:14:45.916Z,-1.40
2018-01-15T03:17:13.498Z,-1.50
2018-01-15T03:19:41.054Z,-1.70
2018-01-15T03:22:08.571Z,-1.90
2018-01-15T03:24:36.859Z,-2.10
2018-01-15T03:27:05.168Z,-2.00
2018-01-15T03:29:32.686Z,-2.10
2018-01-15T03:32:00.980Z,-2.10
2018-01-15T03:34:28.555Z,-2.10
2018-01-15T03:36:56.085Z,-1.80
2018-01-15T03:39:24.384Z,-1.60
2018-01-15T03:41:51.941Z,-1.60
2018-01-15T03:44:19.509Z,-1.70
2018-01-15T03:46:47.027Z,-1.90
2018-01-15T03:49:15.353Z,-1.60
2018-01-15T03:51:42.889Z,-1.70
2018-01-15T03:54:10.417Z,-1.70
2018-01-15T03:56:38.728Z,-1.50
2018-01-15T03:59:06.247Z,-1.50
2018-01-15T04:01:33.870Z,-1.60
2018-01-15T04:04:01.429Z,-1.90
2018-01-15T04:06:28.961Z,-1.80
2018-01-15T04:08:56.760Z,-1.90
2018-01-15T04:11:24.302Z,-1.90
2018-01-15T04:13:52.082Z,-2.00
2018-01-15T04:16:19.664Z,-2.00
2018-01-15T04:18:47.182Z,-2.00
2018-01-15T04:21:14.721Z,-2.00
2018-01-15T04:23:42.253Z,-1.80
2018-01-15T04:26:10.574Z,-1.70
2018-01-15T04:28:38.091Z,-1.80
2018-01-15T04:31:06.390Z,-1.70
2018-01-15T04:33:33.945Z,-1.80
2018-01-15T04:36:01.505Z,-1.70
2018-01-15T04:38:29.028Z,-1.70
2018-01-15T04:40:56.566Z,-1.60
2018-01-15T04:43:24.101Z,-1.70
2018-01-15T04:45:51.633Z,-1.60
2018-01-15T04:48:19.939Z,-1.70
2018-01-15T04:50:47.459Z,-1.70
2018-01-15T04:53:15.765Z,-1.70
2018-01-15T04:55:43.320Z,-1.70
2018-01-15T04:58:10.847Z,-1.60
2018-01-15T05:00:39.149Z,-1.30
2018-01-15T05:03:06.695Z,-1.30
2018-01-15T05:05:34.997Z,-1.10
2018-01-15T05:08:02.519Z,-1.10
2018-01-15T05:10:30.842Z,-1.00
2018-01-15T05:13:00.465Z,-1.00
2018-01-15T05:15:30.480Z,-0.80
2018-01-15T05:18:01.185Z,-0.90
2018-01-15T05:20:31.163Z,-0.80
2018-01-15T05:23:00.848Z,-0.80
2018-01-15T05:25:30.992Z,-0.90
2018-01-15T05:28:01.892Z,-0.80
2018-01-15T05:30:31.378Z,-0.80
2018-01-15T05:33:01.839Z,-0.80
2018-01-15T05:35:31.625Z,-0.70
2018-01-15T05:38:02.231Z,-0.60
2018-01-15T05:40:31.794Z,-0.60
2018-01-15T05:43:01.493Z,-0.50
2018-01-15T05:45:31.891Z,-0.50
2018-01-15T05:48:01.610Z,-0.50
2018-01-15T05:50:31.781Z,-0.50
2018-01-15T05:53:03.256Z,-0.60
2018-01-15T05:55:33.110Z,-0.60
2018-01-15T05:58:03.825Z,-0.40
2018-01-15T06:00:33.790Z,-0.40
2018-01-15T06:03:02.308Z,-0.30
2018-01-15T06:05:32.389Z,-0.60
2018-01-15T06:08:02.170Z,-0.60
2018-01-15T06:10:32.515Z,-0.60
2018-01-15T06:13:02.437Z,-0.60
2018-01-15T06:15:32.606Z,-0.50
2018-01-15T06:18:03.265Z,-0.30
2018-01-15T06:20:33.575Z,-0.20
2018-01-15T06:23:02.723Z,-0.20
2018-01-15T06:25:32.640Z,-0.20
2018-01-15T06:28:02.789Z,-0.20
2018-01-15T06:30:32.592Z,-0.10
2018-01-15T06:33:02.561Z,-0.10
2018-01-15T06:35:33.043Z,-0.20
2018-01-15T06:38:02.861Z,-0.20
2018-01-15T06:40:32.480Z,-0.10
2018-01-15T06:43:02.977Z,-0.10
2018-01-15T06:45:32.426Z,-0.10
2018-01-15T06:48:02.939Z,-0.20
2018-01-15T06:50:33.648Z,0.00
2018-01-15T06:53:04.662Z,0.00
2018-01-15T06:55:34.405Z,0.00
2018-01-15T06:58:05.281Z,0.00
2018-01-15T07:00:35.118Z,0.00
2018-01-15T07:03:04.910Z,0.00
2018-01-15T07:05:34.745Z,0.10
2018-01-15T07:08:05.390Z,0.00
2018-01-15T07:10:35.099Z,0.00
2018-01-15T07:13:05.512Z,0.10
2018-01-15T07:15:35.610Z,0.10
2018-01-15T07:18:06.742Z,0.20
2018-01-15T07:20:36.088Z,0.10
2018-01-15T07:23:05.503Z,0.00
2018-01-15T07:25:35.749Z,0.00
2018-01-15T07:28:05.451Z,-0.10
2018-01-15T07:30:35.338Z,-0.10
2018-01-15T07:33:04.998Z,-0.20
2018-01-15T07:35:35.446Z,-0.10
2018-01-15T07:38:06.097Z,-0.10
2018-01-15T07:40:35.786Z,-0.10
2018-01-15T07:43:05.245Z,-0.10
2018-01-15T07:45:34.788Z,-0.10
2018-01-15T07:48:05.145Z,0.00
2018-01-15T07:50:35.127Z,0.00
2018-01-15T07:53:04.880Z,0.00
2018-01-15T07:55:34.412Z,0.10
2018-01-15T07:58:03.704Z,0.10
2018-01-15T08:00:33.548Z,0.20
2018-01-15T08:03:03.012Z,0.20
2018-01-15T08:05:33.007Z,0.20
2018-01-15T08:08:03.100Z,0.20
2018-01-15T08:10:32.900Z,0.30
2018-01-15T08:13:03.258Z,0.30
2018-01-15T08:15:32.868Z,0.30
2018-01-15T08:18:02.706Z,0.30
2018-01-15T08:20:32.305Z,0.30
2018-01-15T08:23:01.470Z,0.30
2018-01-15T08:25:31.645Z,0.20
2018-01-15T08:28:02.378Z,0.10
2018-01-15T08:30:32.025Z,0.00
2018-01-15T08:33:01.869Z,0.20
2018-01-15T08:35:31.215Z,0.30
2018-01-15T08:38:01.815Z,0.80
2018-01-15T08:40:31.533Z,0.80
2018-01-15T08:43:01.445Z,0.90
2018-01-15T08:45:31.151Z,1.10
2018-01-15T08:48:02.990Z,1.60
2018-01-15T08:50:32.184Z,1.60
2018-01-15T08:53:02.976Z,2.00
2018-01-15T08:55:33.116Z,2.30
2018-01-15T08:58:03.393Z,2.10
2018-01-15T09:00:33.747Z,2.10
2018-01-15T09:03:03.810Z,2.00
2018-01-15T09:05:33.403Z,2.10
2018-01-15T09:08:03.946Z,2.10
2018-01-15T09:10:33.533Z,2.10
2018-01-15T09:13:03.317Z,2.20
2018-01-15T09:15:33.826Z,2.40
2018-01-15T09:18:03.584Z,2.60
2018-01-15T09:20:33.010Z,2.60
2018-01-15T09:23:02.676Z,2.80
2018-01-15T09:25:32.368Z,2.40
2018-01-15T09:28:02.251Z,2.80
2018-01-15T09:30:31.857Z,3.20
2018-01-15T09:33:02.081Z,3.30
2018-01-15T09:35:31.675Z,3.30
2018-01-15T09:38:01.813Z,3.80
2018-01-15T09:40:32.141Z,4.80
2018-01-15T09:43:02.822Z,5.30
2018-01-15T09:45:32.518Z,5.30
2018-01-15T09:48:02.518Z,5.70
2018-01-15T09:50:31.835Z,5.50
2018-01-15T09:53:02.397Z,4.90
2018-01-15T09:55:32.885Z,4.90
2018-01-15T09:58:04.058Z,4.30
2018-01-15T10:00:34.891Z,4.20
2018-01-15T10:03:04.550Z,4.20
2018-01-15T10:05:34.549Z,4.20
2018-01-15T10:08:03.950Z,4.20
2018-01-15T10:10:33.610Z,4.00
2018-01-15T10:13:04.486Z,4.00
2018-01-15T10:15:33.785Z,3.90
2018-01-15T10:18:04.985Z,3.90
2018-01-15T10:20:34.393Z,4.10
2018-01-15T10:23:04.207Z,4.00
2018-01-15T10:25:34.710Z,3.80
2018-01-15T10:28:05.329Z,3.80
2018-01-15T10:30:35.538Z,3.80
2018-01-15T10:33:05.344Z,3.90
2018-01-15T10:35:34.786Z,4.00
2018-01-15T10:38:04.441Z,4.00
2018-01-15T10:40:34.809Z,4.00
2018-01-15T10:43:04.470Z,4.00
2018-01-15T10:45:34.303Z,4.20
2018-01-15T10:48:04.080Z,4.20
2018-01-15T10:50:33.177Z,4.20
2018-01-15T10:53:02.718Z,4.30
2018-01-15T10:55:33.041Z,4.50
2018-01-15T10:58:02.859Z,4.50
2018-01-15T11:00:37.615Z,4.50
2018-01-15T11:03:07.656Z,4.80
2018-01-15T11:05:37.710Z,4.70
2018-01-15T11:08:06.807Z,4.90
2018-01-15T11:10:37.314Z,4.90
2018-01-15T11:13:07.138Z,4.90
2018-01-15T11:15:36.913Z,4.90
2018-01-15T11:18:06.578Z,4.80
2018-01-15T11:20:36.985Z,4.60
2018-01-15T11:23:08.111Z,4.60
2018-01-15T11:25:37.465Z,4.60
2018-01-15T11:28:05.415Z,4.70
2018-01-15T11:30:33.289Z,4.60
2018-01-15T11:33:00.825Z,4.70
2018-01-15T11:35:28.609Z,4.60
2018-01-15T11:37:56.128Z,4.80
2018-01-15T11:40:23.687Z,4.80
2018-01-15T11:42:51.218Z,4.80
2018-01-15T11:45:18.732Z,4.80
2018-01-15T11:47:46.270Z,4.90
2018-01-15T11:50:13.791Z,4.90
2018-01-15T11:52:41.422Z,4.90
2018-01-15T11:55:08.968Z,4.90
2018-01-15T11:57:36.486Z,4.80
2018-01-15T12:00:04.771Z,4.80
2018-01-15T12:02:32.325Z,4.80
2018-01-15T12:05:00.615Z,4.70
2018-01-15T12:07:28.141Z,4.70
2018-01-15T12:09:55.679Z,4.60
2018-01-15T12:12:23.215Z,4.60
2018-01-15T12:14:50.757Z,4.60
2018-01-15T12:17:18.317Z,4.80
2018-01-15T12:19:46.106Z,4.80
2018-01-15T12:22:13.973Z,4.70
2018-01-15T12:24:41.525Z,4.80
2018-01-15T12:27:09.039Z,4.70
2018-01-15T12:29:37.323Z,4.70
2018-01-15T12:32:04.877Z,4.70
2018-01-15T12:34:32.445Z,4.70
2018-01-15T12:36:59.977Z,4.70
2018-01-15T12:39:27.533Z,4.80
2018-01-15T12:41:55.050Z,4.90
2018-01-15T12:44:22.828Z,4.90
2018-01-15T12:46:50.370Z,5.00
2018-01-15T12:49:17.901Z,5.10
2018-01-15T12:51:45.419Z,5.20
2018-01-15T12:54:12.976Z,5.30
2018-01-15T12:56:40.491Z,5.30
2018-01-15T12:59:08.007Z,5.40
2018-01-15T13:01:35.548Z,5.30
2018-01-15T13:04:03.071Z,5.20
2018-01-15T13:06:42.623Z,5.20
2018-01-15T13:09:10.139Z,5.30
2018-01-15T13:11:38.437Z,5.40
2018-01-15T13:14:05.976Z,5.40
2018-01-15T13:16:34.255Z,5.50
2018-01-15T13:19:02.549Z,5.40
2018-01-15T13:21:30.087Z,5.40
2018-01-15T13:23:58.389Z,5.40
2018-01-15T13:26:25.911Z,5.40
2018-01-15T13:28:54.229Z,5.40
2018-01-15T13:31:21.747Z,5.40
2018-01-15T13:33:50.057Z,5.40
2018-01-15T13:36:17.955Z,5.40
2018-01-15T13:38:45.479Z,5.40
2018-01-15T13:41:13.275Z,5.50
2018-01-15T13:43:40.833Z,5.50
2018-01-15T13:46:08.369Z,5.50
2018-01-15T13:48:35.905Z,5.50
2018-01-15T13:51:04.207Z,5.60
2018-01-15T13:53:31.732Z,5.60
2018-01-15T13:56:00.024Z,5.60
2018-01-15T13:58:27.581Z,5.60
2018-01-15T14:00:55.123Z,5.70
2018-01-15T14:03:23.426Z,5.70
2018-01-15T14:05:50.971Z,5.70
2018-01-15T14:08:18.491Z,5.80
2018-01-15T14:10:46.024Z,5.70
2018-01-15T14:13:13.563Z,5.80
2018-01-15T14:15:41.079Z,5.80
2018-01-15T14:18:09.369Z,5.80
2018-01-15T14:20:37.701Z,5.70
2018-01-15T14:23:05.222Z,5.70
2018-01-15T14:25:32.747Z,5.80
2018-01-15T14:28:00.297Z,5.80
2018-01-15T14:30:27.853Z,5.80
2018-01-15T14:32:56.140Z,5.80
2018-01-15T14:35:24.480Z,5.90
2018-01-15T14:37:52.356Z,5.80
2018-01-15T14:40:19.922Z,5.90
2018-01-15T14:42:47.491Z,5.90
2018-01-15T14:45:16.516Z,6.00
2018-01-15T14:47:44.928Z,6.00
2018-01-15T14:50:12.481Z,6.00
2018-01-15T14:52:40.013Z,6.00
2018-01-15T14:55:08.309Z,6.00
2018-01-15T14:57:35.867Z,6.00
2018-01-15T15:00:03.392Z,6.00
2018-01-15T15:02:31.679Z,6.00
2018-01-15T15:04:59.979Z,6.00
2018-01-15T15:07:27.495Z,6.00
2018-01-15T15:09:55.333Z,6.00
2018-01-15T15:12:22.880Z,5.90
2018-01-15T15:14:50.400Z,5.90
2018-01-15T15:17:18.683Z,5.90
2018-01-15T15:19:46.219Z,5.80
2018-01-15T15:22:13.739Z,5.80
2018-01-15T15:24:41.297Z,5.80
2018-01-15T15:27:08.844Z,5.80
2018-01-15T15:29:36.401Z,5.80
2018-01-15T15:32:03.945Z,5.80
2018-01-15T15:34:31.495Z,5.80
2018-01-15T15:36:59.037Z,5.80
2018-01-15T15:39:27.337Z,5.80
2018-01-15T15:41:54.889Z,5.80
2018-01-15T15:44:22.461Z,5.90
2018-01-15T15:46:50.000Z,5.90
2018-01-15T15:49:18.317Z,5.90
2018-01-15T15:51:45.900Z,5.90
2018-01-15T15:54:13.747Z,5.90
2018-01-15T15:56:41.697Z,5.90
2018-01-15T15:59:10.080Z,5.90
2018-01-15T16:01:37.590Z,5.90
2018-01-15T16:04:05.134Z,5.90
2018-01-15T16:06:32.655Z,5.80
2018-01-15T16:09:00.170Z,5.80
2018-01-15T16:11:29.006Z,5.80
2018-01-15T16:13:56.561Z,5.80
2018-01-15T16:16:24.083Z,5.80
2018-01-15T16:18:51.651Z,5.70
2018-01-15T16:21:19.931Z,5.70
2018-01-15T16:23:47.465Z,5.70
2018-01-15T16:26:15.784Z,5.80
2018-01-15T16:28:43.303Z,5.80
2018-01-15T16:31:11.617Z,5.70
2018-01-15T16:33:39.155Z,5.70
2018-01-15T16:36:07.450Z,5.70
2018-01-15T16:38:34.989Z,5.60
2018-01-15T16:41:03.291Z,5.70
2018-01-15T16:43:30.821Z,5.70
2018-01-15T16:45:59.103Z,5.60
2018-01-15T16:48:26.643Z,5.60
2018-01-15T16:50:54.940Z,5.60
2018-01-15T16:53:22.452Z,5.60
2018-01-15T16:55:50.040Z,5.60
2018-01-15T16:58:17.558Z,5.60
2018-01-15T17:00:45.124Z,5.50
2018-01-15T17:03:13.173Z,5.50
2018-01-15T17:05:40.737Z,5.40
2018-01-15T17:08:08.254Z,5.40
2018-01-15T17:10:36.573Z,5.30
2018-01-15T17:13:04.088Z,5.30
2018-01-15T17:15:32.619Z,5.20
2018-01-15T17:18:00.165Z,5.20
2018-01-15T17:20:27.683Z,5.30
2018-01-15T17:22:55.982Z,5.30
2018-01-15T17:25:23.537Z,5.30
2018-01-15T17:27:51.071Z,5.20
2018-01-15T17:30:19.359Z,5.20
2018-01-15T17:32:47.664Z,5.20
2018-01-15T17:35:15.179Z,5.20
2018-01-15T17:37:42.719Z,5.30
2018-01-15T17:40:10.263Z,5.20
2018-01-15T17:42:37.783Z,5.20
2018-01-15T17:45:05.313Z,5.20
2018-01-15T17:47:33.633Z,5.20
2018-01-15T17:50:01.179Z,5.20
2018-01-15T17:52:28.758Z,5.20
2018-01-15T17:54:56.531Z,5.20
2018-01-15T17:57:24.043Z,5.30
2018-01-15T17:59:52.677Z,5.20
2018-01-15T18:02:20.231Z,5.20
2018-01-15T18:04:47.771Z,5.30
2018-01-15T18:07:15.309Z,5.30
2018-01-15T18:09:43.116Z,5.30
2018-01-15T18:12:10.672Z,5.30
2018-01-15T18:14:38.186Z,5.30
2018-01-15T18:17:06.487Z,5.20
2018-01-15T18:19:34.018Z,5.20
2018-01-15T18:22:02.307Z,5.20
2018-01-15T18:24:29.847Z,5.20
2018-01-15T18:26:58.153Z,5.20
2018-01-15T18:29:25.692Z,5.20
2018-01-15T18:31:54.026Z,5.20
2018-01-15T18:34:21.539Z,5.20
2018-01-15T18:36:49.073Z,5.20
2018-01-15T18:39:17.385Z,5.30
2018-01-15T18:41:44.912Z,5.30
2018-01-15T18:44:13.217Z,5.40
2018-01-15T18:46:40.778Z,5.30
2018-01-15T18:49:08.309Z,5.40
2018-01-15T18:51:36.601Z,5.40
2018-01-15T18:54:04.136Z,5.40
2018-01-15T18:56:32.423Z,5.50
2018-01-15T18:59:00.707Z,5.40
2018-01-15T19:01:28.261Z,5.40
2018-01-15T19:03:56.787Z,5.40
2018-01-15T19:06:24.547Z,5.40
2018-01-15T19:08:52.083Z,5.30
2018-01-15T19:11:19.608Z,5.30
2018-01-15T19:13:47.899Z,5.10
2018-01-15T19:16:16.213Z,5.00
2018-01-15T19:18:43.736Z,5.00
2018-01-15T19:21:12.018Z,5.10
2018-01-15T19:23:39.551Z,5.00
2018-01-15T19:26:07.081Z,5.00
2018-01-15T19:28:34.605Z,5.10
2018-01-15T19:31:02.313Z,5.10
2018-01-15T19:33:30.598Z,5.20
2018-01-15T19:49:33.982Z,5.10
2018-01-15T19:52:07.193Z,5.10
2018-01-15T19:54:41.203Z,5.00
2018-01-15T20:10:40.716Z,5.20
2018-01-15T20:13:08.250Z,5.20
2018-01-15T20:15:36.551Z,5.10
2018-01-15T20:18:04.145Z,5.10
2018-01-15T20:20:31.681Z,5.30
2018-01-15T20:22:59.230Z,5.20
2018-01-15T20:25:26.773Z,5.20
2018-01-15T20:27:55.184Z,5.10
2018-01-15T20:30:22.705Z,5.10
2018-01-15T20:32:51.019Z,5.00
2018-01-15T20:35:18.543Z,4.90
2018-01-15T20:37:46.845Z,4.90
2018-01-15T20:40:14.733Z,4.90
2018-01-15T20:42:42.264Z,4.90
2018-01-15T20:45:09.875Z,4.90
2018-01-15T20:47:37.446Z,5.00
2018-01-15T20:50:04.977Z,4.90
2018-01-15T20:52:32.735Z,5.10
2018-01-15T20:55:00.276Z,5.00
2018-01-15T20:57:27.791Z,4.90
2018-01-15T20:59:56.090Z,5.00
2018-01-15T21:02:23.640Z,5.00
2018-01-15T21:04:51.941Z,5.00
2018-01-15T21:07:19.474Z,5.00
2018-01-15T21:09:47.792Z,5.20
2018-01-15T21:12:15.307Z,5.20
2018-01-15T21:14:43.608Z,5.20
2018-01-15T21:17:11.399Z,5.20
2018-01-15T21:19:38.915Z,5.20
2018-01-15T21:22:06.430Z,5.20
2018-01-15T21:24:33.978Z,5.10
2018-01-15T21:27:01.491Z,5.10
2018-01-15T21:29:29.025Z,5.10
2018-01-15T21:31:57.331Z,5.10
2018-01-15T21:34:24.851Z,5.10
2018-01-15T21:36:52.385Z,5.10
2018-01-15T21:39:19.924Z,5.10
2018-01-15T21:41:47.438Z,5.20
2018-01-15T21:44:15.714Z,5.20
2018-01-15T21:46:44.015Z,5.30
2018-01-15T21:49:11.531Z,5.30
2018-01-15T21:51:39.057Z,5.40
2018-01-15T21:54:06.592Z,5.40
2018-01-15T21:56:34.124Z,5.40
2018-01-15T21:59:02.417Z,5.40
2018-01-15T22:01:30.715Z,5.40
2018-01-15T22:03:58.282Z,5.50
2018-01-15T22:06:25.817Z,5.50
2018-01-15T22:08:53.365Z,5.50
2018-01-15T22:11:21.683Z,5.80
2018-01-15T22:13:49.213Z,5.80
2018-01-15T22:16:16.742Z,5.70
2018-01-15T22:18:44.263Z,5.80
2018-01-15T22:21:11.779Z,5.70
2018-01-15T22:23:40.097Z,6.00
2018-01-15T22:26:07.629Z,6.00
2018-01-15T22:28:35.146Z,6.00
2018-01-15T22:31:02.692Z,6.10
2018-01-15T22:33:30.210Z,6.10
2018-01-15T22:35:57.735Z,6.10
2018-01-15T22:38:26.057Z,6.10
2018-01-15T22:40:53.687Z,6.10
2018-01-15T22:43:22.315Z,6.10
2018-01-15T22:45:49.859Z,6.10
2018-01-15T22:48:17.384Z,6.20
2018-01-15T22:50:45.677Z,6.30
2018-01-15T22:53:13.225Z,6.20
2018-01-15T22:55:40.739Z,6.20
2018-01-15T22:58:08.270Z,6.20
2018-01-15T23:00:35.826Z,6.30
2018-01-15T23:03:03.354Z,6.30
2018-01-15T23:05:31.645Z,6.40
2018-01-15T23:07:59.195Z,6.30
2018-01-15T23:10:26.729Z,6.30
2018-01-15T23:12:55.033Z,6.30
2018-01-15T23:15:22.585Z,6.30
2018-01-15T23:17:50.875Z,6.20
2018-01-15T23:20:18.390Z,6.20
2018-01-15T23:22:45.931Z,6.30
2018-01-15T23:25:13.447Z,6.30
2018-01-15T23:27:41.015Z,6.30
2018-01-15T23:30:08.569Z,6.30
2018-01-15T23:32:36.156Z,6.30
2018-01-15T23:35:03.675Z,6.40
2018-01-15T23:37:31.225Z,6.40
2018-01-15T23:39:59.521Z,6.40
2018-01-15T23:42:27.109Z,6.40
2018-01-15T23:44:54.658Z,6.40
2018-01-15T23:47:22.170Z,6.30
2018-01-15T23:49:50.455Z,6.10
2018-01-15T23:52:18.770Z,6.20
2018-01-15T23:54:46.297Z,6.20
2018-01-15T23:57:13.828Z,6.20
2018-01-15T23:59:41.373Z,6.20
